createdAt,value
2023-05-10T00:03:59.102Z,100256.58
2023-05-10T00:08:07.506Z,100258.39
2023-05-10T00:12:15.767Z,100256.14
2023-05-10T00:16:24.044Z,100245.77
2023-05-10T00:20:31.420Z,100245.34
2023-05-10T00:24:39.947Z,100243.18
2023-05-10T00:28:47.711Z,100244.73
2023-05-10T00:32:55.690Z,100246.23
2023-05-10T00:37:03.813Z,100242.86
2023-05-10T00:41:11.982Z,100239.34
2023-05-10T00:45:20.295Z,100239.00
2023-05-10T00:49:28.442Z,100234.34
2023-05-10T00:53:38.029Z,100228.29
2023-05-10T00:57:45.936Z,100223.17
2023-05-10T01:01:53.830Z,100222.55
2023-05-10T01:06:01.873Z,100218.41
2023-05-10T01:10:11.813Z,100215.30
2023-05-10T01:14:22.570Z,100214.73
2023-05-10T01:18:31.415Z,100212.45
2023-05-10T01:22:55.531Z,100214.54
2023-05-10T01:27:20.948Z,100212.80
2023-05-10T01:31:38.128Z,100214.74
2023-05-10T01:35:53.246Z,100216.24
2023-05-10T01:40:06.424Z,100214.91
2023-05-10T01:44:22.249Z,100219.89
2023-05-10T01:48:31.555Z,100223.55
2023-05-10T01:52:43.416Z,100216.02
2023-05-10T01:56:52.992Z,100214.61
2023-05-10T02:01:02.826Z,100211.83
2023-05-10T02:05:11.723Z,100213.45
2023-05-10T02:09:20.573Z,100214.57
2023-05-10T02:13:30.228Z,100210.05
2023-05-10T02:17:39.874Z,100208.16
2023-05-10T02:21:47.259Z,100208.39
2023-05-10T02:25:56.141Z,100210.75
2023-05-10T02:30:04.074Z,100209.13
2023-05-10T02:34:12.399Z,100204.61
2023-05-10T02:38:21.728Z,100207.75
2023-05-10T02:42:31.383Z,100204.59
2023-05-10T02:46:39.583Z,100202.16
2023-05-10T02:50:52.547Z,100202.88
2023-05-10T02:55:05.378Z,100202.29
2023-05-10T02:59:16.083Z,100202.15
2023-05-10T03:03:24.029Z,100208.28
2023-05-10T03:07:32.115Z,100205.52
2023-05-10T03:11:50.721Z,100202.91
2023-05-10T03:16:05.069Z,100203.96
2023-05-10T03:20:15.968Z,100204.28
2023-05-10T03:24:25.655Z,100204.93
2023-05-10T03:28:37.724Z,100204.22
2023-05-10T03:32:45.662Z,100203.29
2023-05-10T03:36:53.050Z,100197.67
2023-05-10T03:41:00.988Z,100199.30
2023-05-10T03:45:11.850Z,100196.70
2023-05-10T03:49:19.936Z,100196.64
2023-05-10T03:53:28.030Z,100198.20
2023-05-10T03:57:35.506Z,100197.53
2023-05-10T04:01:43.597Z,100196.77
2023-05-10T04:05:51.038Z,100198.69
2023-05-10T04:09:59.328Z,100197.84
2023-05-10T04:14:06.796Z,100199.00
2023-05-10T04:18:14.997Z,100194.09
2023-05-10T04:22:22.990Z,100195.11
2023-05-10T04:26:30.760Z,100197.85
2023-05-10T04:30:39.645Z,100199.63
2023-05-10T04:34:48.052Z,100199.13
2023-05-10T04:38:56.231Z,100197.54
2023-05-10T04:43:04.252Z,100200.06
2023-05-10T04:47:12.924Z,100201.27
2023-05-10T04:51:21.684Z,100197.69
2023-05-10T04:55:30.092Z,100196.77
2023-05-10T04:59:40.208Z,100194.84
2023-05-10T05:03:47.878Z,100190.97
2023-05-10T05:07:57.352Z,100183.03
2023-05-10T05:12:04.953Z,100184.13
2023-05-10T05:16:14.023Z,100182.67
2023-05-10T05:20:22.297Z,100183.17
2023-05-10T05:24:29.912Z,100185.42
2023-05-10T05:28:39.011Z,100178.54
2023-05-10T05:32:48.305Z,100173.66
2023-05-10T05:36:56.773Z,100175.14
2023-05-10T05:41:05.115Z,100170.95
2023-05-10T05:45:14.539Z,100166.93
2023-05-10T05:49:25.370Z,100166.95
2023-05-10T05:53:33.492Z,100170.73
2023-05-10T05:57:42.051Z,100169.87
2023-05-10T06:01:50.966Z,100163.27
2023-05-10T06:05:58.888Z,100160.05
2023-05-10T06:10:08.405Z,100160.30
2023-05-10T06:14:16.143Z,100158.74
2023-05-10T06:18:24.526Z,100159.41
2023-05-10T06:22:33.026Z,100162.19
2023-05-10T06:26:40.616Z,100162.88
2023-05-10T06:30:49.063Z,100158.39
2023-05-10T06:34:57.256Z,100152.75
2023-05-10T06:39:05.020Z,100150.84
2023-05-10T06:43:13.197Z,100143.87
2023-05-10T06:47:21.613Z,100141.91
2023-05-10T06:51:29.656Z,100145.26
2023-05-10T06:55:37.362Z,100140.20
2023-05-10T06:59:45.680Z,100139.66
2023-05-10T07:03:53.986Z,100136.30
2023-05-10T07:08:02.735Z,100133.13
2023-05-10T07:12:14.693Z,100129.20
2023-05-10T07:16:23.282Z,100118.54
2023-05-10T07:20:31.164Z,100112.64
2023-05-10T07:24:39.861Z,100106.95
2023-05-10T07:28:51.250Z,100113.63
2023-05-10T07:32:58.965Z,100118.69
2023-05-10T07:37:07.378Z,100120.82
2023-05-10T07:41:15.689Z,100115.34
2023-05-10T07:45:24.529Z,100114.79
2023-05-10T07:49:32.075Z,100115.73
2023-05-10T07:53:40.280Z,100110.02
2023-05-10T07:57:47.932Z,100110.84
2023-05-10T08:01:55.674Z,100103.16
2023-05-10T08:06:03.423Z,100100.47
2023-05-10T08:10:13.642Z,100095.31
2023-05-10T08:14:21.214Z,100095.55
2023-05-10T08:18:29.591Z,100089.95
2023-05-10T08:22:37.448Z,100083.52
2023-05-10T08:26:56.960Z,100079.69
2023-05-10T08:31:13.852Z,100082.95
2023-05-10T08:35:25.415Z,100083.06
2023-05-10T08:39:40.792Z,100080.05
2023-05-10T08:43:53.271Z,100078.19
2023-05-10T08:48:03.609Z,100076.72
2023-05-10T08:52:19.685Z,100070.98
2023-05-10T08:56:35.321Z,100072.11
2023-05-10T09:00:47.518Z,100075.91
2023-05-10T09:04:55.703Z,100073.71
2023-05-10T09:09:04.404Z,100066.60
2023-05-10T09:13:13.968Z,100069.26
2023-05-10T09:17:22.153Z,100063.49
2023-05-10T09:21:30.811Z,100062.17
2023-05-10T09:25:39.757Z,100060.54
2023-05-10T09:29:47.531Z,100064.40
2023-05-10T09:33:56.094Z,100058.30
2023-05-10T09:38:05.346Z,100060.42
2023-05-10T09:42:14.065Z,100065.67
2023-05-10T09:46:22.504Z,100060.02
2023-05-10T09:50:31.633Z,100065.77
2023-05-10T09:54:39.385Z,100061.20
2023-05-10T09:58:47.306Z,100057.65
2023-05-10T10:03:00.992Z,100051.20
2023-05-10T10:07:11.486Z,100051.32
2023-05-10T10:11:19.436Z,100050.79
2023-05-10T10:15:28.608Z,100046.23
2023-05-10T10:19:37.626Z,100039.64
2023-05-10T10:23:46.431Z,100037.52
2023-05-10T10:28:05.040Z,100029.27
2023-05-10T10:32:24.660Z,100033.40
2023-05-10T10:36:34.488Z,100029.33
2023-05-10T10:40:42.538Z,100030.32
2023-05-10T10:44:50.652Z,100038.00
2023-05-10T10:49:14.608Z,100030.81
2023-05-10T10:53:22.364Z,100027.61
2023-05-10T10:57:31.337Z,100032.16
2023-05-10T11:01:38.968Z,100026.17
2023-05-10T11:05:47.934Z,100022.81
2023-05-10T11:09:59.128Z,100018.70
2023-05-10T11:14:09.401Z,100021.17
2023-05-10T11:18:25.163Z,100014.74
2023-05-10T11:22:33.441Z,100009.44
2023-05-10T11:26:41.232Z,100008.42
2023-05-10T11:30:48.699Z,100003.05
2023-05-10T11:34:56.716Z,99995.91
2023-05-10T11:39:05.012Z,100004.85
2023-05-10T11:43:13.813Z,100003.48
2023-05-10T11:47:22.883Z,100008.67
2023-05-10T11:51:32.450Z,100003.77
2023-05-10T11:55:40.295Z,100006.27
2023-05-10T11:59:48.223Z,100007.10
2023-05-10T12:03:59.900Z,100000.98
2023-05-10T12:08:18.462Z,100006.89
2023-05-10T12:12:26.320Z,100005.55
2023-05-10T12:16:34.619Z,100006.58
2023-05-10T12:20:43.604Z,100009.78
2023-05-10T12:24:52.313Z,100013.37
2023-05-10T12:29:16.843Z,100016.86
2023-05-10T12:33:24.766Z,100017.90
2023-05-10T12:37:37.942Z,100014.67
2023-05-10T12:41:46.506Z,100015.55
2023-05-10T12:45:54.330Z,100016.13
2023-05-10T12:50:04.098Z,100012.96
2023-05-10T12:54:11.877Z,100008.73
2023-05-10T12:58:31.968Z,100013.50
2023-05-10T13:02:43.469Z,100015.83
2023-05-10T13:06:51.274Z,100018.64
2023-05-10T13:11:04.033Z,100015.97
2023-05-10T13:15:14.345Z,100010.42
2023-05-10T13:19:22.582Z,100014.24
2023-05-10T13:23:31.538Z,100010.00
2023-05-10T13:27:39.663Z,100012.04
2023-05-10T13:31:49.373Z,100000.55
2023-05-10T13:35:57.419Z,100001.33
2023-05-10T13:40:05.474Z,99998.44
2023-05-10T13:44:14.137Z,99999.17
2023-05-10T13:48:22.181Z,99996.17
2023-05-10T13:52:30.728Z,99993.87
2023-05-10T13:56:39.348Z,99991.12
2023-05-10T14:00:47.921Z,99990.98
2023-05-10T14:04:56.098Z,99990.20
2023-05-10T14:09:03.972Z,99989.32
2023-05-10T14:13:11.532Z,99986.06
2023-05-10T14:17:19.621Z,99987.62
2023-05-10T14:21:27.685Z,99983.99
2023-05-10T14:25:36.027Z,99987.97
2023-05-10T14:29:43.758Z,99988.74
2023-05-10T14:33:51.846Z,99985.55
2023-05-10T14:38:00.269Z,99985.70
2023-05-10T14:42:08.334Z,99979.86
2023-05-10T14:46:17.279Z,99980.27
2023-05-10T14:54:42.060Z,99982.34
2023-05-10T14:58:50.030Z,99985.89
2023-05-10T15:02:58.989Z,99985.14
2023-05-10T15:07:08.743Z,99983.66
2023-05-10T15:11:19.199Z,99980.25
2023-05-10T15:15:27.052Z,99980.69
2023-05-10T15:19:35.667Z,99979.80
2023-05-10T15:23:43.675Z,99984.42
2023-05-10T15:27:51.412Z,99982.10
2023-05-10T15:31:59.323Z,99982.43
2023-05-10T15:36:09.021Z,99982.98
2023-05-10T15:40:17.643Z,99984.41
2023-05-10T15:44:26.311Z,99984.30
2023-05-10T15:48:34.136Z,99983.45
2023-05-10T15:52:42.459Z,99983.05
2023-05-10T15:56:50.568Z,99981.63
2023-05-10T16:00:59.168Z,99981.52
2023-05-10T16:05:08.882Z,99978.41
2023-05-10T16:09:17.551Z,99978.01
2023-05-10T16:13:28.038Z,99975.10
2023-05-10T16:17:35.723Z,99980.06
2023-05-10T16:21:43.588Z,99983.45
2023-05-10T16:25:51.533Z,99981.03
2023-05-10T16:30:02.368Z,99984.55
2023-05-10T16:34:10.640Z,99988.54
2023-05-10T16:38:18.415Z,99992.51
2023-05-10T16:42:26.647Z,99991.40
2023-05-10T16:46:35.158Z,99994.45
2023-05-10T16:50:46.048Z,99995.02
2023-05-10T16:54:53.941Z,99998.87
2023-05-10T16:59:03.967Z,100000.79
2023-05-10T17:03:12.726Z,100002.09
2023-05-10T17:07:22.650Z,100006.70
2023-05-10T17:11:32.407Z,100014.02
2023-05-10T17:15:41.412Z,100021.23
2023-05-10T17:19:50.102Z,100020.27
2023-05-10T17:23:57.866Z,100026.08
2023-05-10T17:28:06.995Z,100034.36
2023-05-10T17:32:14.652Z,100040.36
2023-05-10T17:36:22.931Z,100042.30
2023-05-10T17:40:30.888Z,100045.90
2023-05-10T17:44:39.286Z,100053.24
2023-05-10T17:48:47.306Z,100055.15
2023-05-10T17:52:55.336Z,100058.39
2023-05-10T17:57:03.853Z,100060.73
2023-05-10T18:01:12.655Z,100062.38
2023-05-10T18:05:21.896Z,100066.52
2023-05-10T18:09:32.390Z,100071.13
2023-05-10T18:13:40.818Z,100075.42
2023-05-10T18:17:48.883Z,100082.05
2023-05-10T18:21:56.758Z,100083.98
2023-05-10T18:26:04.756Z,100089.94
2023-05-10T18:30:14.853Z,100092.71
2023-05-10T18:34:22.766Z,100095.15
2023-05-10T18:38:31.469Z,100098.84
2023-05-10T18:42:39.303Z,100096.42
2023-05-10T18:46:46.815Z,100108.73
2023-05-10T18:50:55.526Z,100113.18
2023-05-10T18:55:06.884Z,100119.52
2023-05-10T18:59:16.768Z,100123.58
2023-05-10T19:03:24.224Z,100128.52
2023-05-10T19:07:32.749Z,100132.75
2023-05-10T19:11:40.220Z,100130.85
2023-05-10T19:15:48.803Z,100135.15
2023-05-10T19:19:57.750Z,100133.10
2023-05-10T19:24:05.665Z,100138.34
2023-05-10T19:28:13.655Z,100141.88
2023-05-10T19:32:22.950Z,100141.41
2023-05-10T19:36:31.253Z,100140.24
2023-05-10T19:40:39.062Z,100139.02
2023-05-10T19:44:47.393Z,100139.65
2023-05-10T19:48:59.362Z,100139.69
2023-05-10T19:53:09.795Z,100143.32
2023-05-10T19:57:19.159Z,100145.98
2023-05-10T20:01:27.059Z,100147.27
2023-05-10T20:05:35.509Z,100148.50
2023-05-10T20:09:43.320Z,100152.33
2023-05-10T20:13:50.915Z,100148.78
2023-05-10T20:17:58.739Z,100154.19
2023-05-10T20:22:09.420Z,100153.00
2023-05-10T20:26:17.172Z,100156.66
2023-05-10T20:30:25.451Z,100156.14
2023-05-10T20:34:33.789Z,100153.79
2023-05-10T20:38:41.332Z,100154.39
2023-05-10T20:42:49.792Z,100154.02
2023-05-10T20:46:57.135Z,100151.50
2023-05-10T20:51:06.770Z,100148.94
2023-05-10T20:55:15.030Z,100153.36
2023-05-10T20:59:23.665Z,100150.48
2023-05-10T21:03:33.484Z,100152.45
2023-05-10T21:07:41.497Z,100154.97
2023-05-10T21:11:49.838Z,100154.50
2023-05-10T21:15:59.378Z,100152.95
2023-05-10T21:20:08.434Z,100156.60
2023-05-10T21:24:16.966Z,100157.24
2023-05-10T21:28:25.189Z,100161.98
2023-05-10T21:32:34.536Z,100164.14
2023-05-10T21:36:42.213Z,100167.88
2023-05-10T21:40:50.089Z,100169.70
2023-05-10T21:44:59.215Z,100169.19
2023-05-10T21:49:07.224Z,100170.66
2023-05-10T21:53:15.206Z,100173.86
2023-05-10T21:57:23.225Z,100171.98
2023-05-10T22:01:31.290Z,100176.27
2023-05-10T22:05:39.209Z,100178.79
2023-05-10T22:09:47.337Z,100180.71
2023-05-10T22:13:55.208Z,100183.66
2023-05-10T22:18:03.501Z,100182.13
2023-05-10T22:22:11.380Z,100184.08
2023-05-10T22:26:19.385Z,100187.14
2023-05-10T22:30:27.125Z,100189.20
2023-05-10T22:34:35.589Z,100191.23
2023-05-10T22:38:48.535Z,100196.73
2023-05-10T22:42:59.080Z,100193.16
2023-05-10T22:47:09.604Z,100196.95
2023-05-10T22:51:17.329Z,100201.08
2023-05-10T22:55:25.259Z,100201.23
2023-05-10T22:59:33.331Z,100205.82
2023-05-10T23:03:41.251Z,100207.47
2023-05-10T23:07:53.345Z,100204.98
2023-05-10T23:12:01.306Z,100207.77
2023-05-10T23:16:12.220Z,100208.14
2023-05-10T23:20:20.470Z,100207.35
2023-05-10T23:24:29.411Z,100207.79
2023-05-10T23:28:37.205Z,100212.73
2023-05-10T23:32:45.292Z,100210.64
2023-05-10T23:36:52.913Z,100210.44
2023-05-10T23:41:00.668Z,100210.42
2023-05-10T23:45:10.050Z,100213.52
2023-05-10T23:49:18.572Z,100213.56
2023-05-10T23:53:27.104Z,100219.39
2023-05-10T23:57:36.441Z,100225.06
